createdAt,value
2022-09-18T00:00:10.840Z,101667.13
2022-09-18T00:02:37.387Z,101665.63
2022-09-18T00:05:05.311Z,101661.44
2022-09-18T00:07:31.711Z,101657.28
2022-09-18T00:09:58.208Z,101655.00
2022-09-18T00:12:24.700Z,101663.59
2022-09-18T00:14:51.133Z,101665.97
2022-09-18T00:17:17.685Z,101671.38
2022-09-18T00:19:44.048Z,101663.91
2022-09-18T00:22:10.401Z,101674.00
2022-09-18T00:24:36.933Z,101669.72
2022-09-18T00:27:03.484Z,101668.78
2022-09-18T00:29:30.276Z,101661.00
2022-09-18T00:31:56.664Z,101660.53
2022-09-18T00:34:23.183Z,101658.63
2022-09-18T00:36:50.483Z,101665.19
2022-09-18T00:39:17.144Z,101662.03
2022-09-18T00:41:44.705Z,101662.03
2022-09-18T00:44:44.763Z,101672.88
2022-09-18T00:47:11.212Z,101665.53
2022-09-18T00:50:00.517Z,101656.94
2022-09-18T00:52:32.771Z,101664.75
2022-09-18T00:55:05.028Z,101668.34
2022-09-18T00:57:33.335Z,101675.81
2022-09-18T01:00:01.640Z,101669.94
2022-09-18T01:02:28.264Z,101664.41
2022-09-18T01:04:54.878Z,101663.91
2022-09-18T01:07:49.904Z,101661.53
2022-09-18T01:10:41.383Z,101656.13
2022-09-18T01:13:23.005Z,101657.94
2022-09-18T01:16:01.297Z,101649.69
2022-09-18T01:18:33.780Z,101651.94
2022-09-18T01:21:22.736Z,101655.34
2022-09-18T01:24:28.427Z,101657.94
2022-09-18T01:26:59.044Z,101657.25
2022-09-18T01:29:52.901Z,101663.13
2022-09-18T01:32:42.034Z,101657.72
2022-09-18T01:35:39.543Z,101659.88
2022-09-18T01:38:09.888Z,101661.91
2022-09-18T01:40:52.895Z,101656.81
2022-09-18T01:43:21.491Z,101659.66
2022-09-18T01:45:52.660Z,101663.59
2022-09-18T01:48:26.645Z,101659.31
2022-09-18T01:50:56.464Z,101654.56
2022-09-18T01:53:30.421Z,101653.31
2022-09-18T01:56:02.696Z,101658.38
2022-09-18T01:58:30.711Z,101656.94
2022-09-18T02:01:00.466Z,101661.53
2022-09-18T02:03:31.388Z,101658.38
2022-09-18T02:06:03.416Z,101670.50
2022-09-18T02:08:38.749Z,101669.47
2022-09-18T02:11:08.956Z,101671.38
2022-09-18T02:13:47.932Z,101656.13
2022-09-18T02:16:20.389Z,101647.53
2022-09-18T02:18:51.588Z,101655.22
2022-09-18T02:21:24.072Z,101648.69
2022-09-18T02:23:51.349Z,101646.88
2022-09-18T02:26:19.484Z,101640.00
2022-09-18T02:28:47.312Z,101633.75
2022-09-18T02:31:13.957Z,101643.16
2022-09-18T02:33:40.645Z,101638.50
2022-09-18T02:36:09.631Z,101640.78
2022-09-18T02:38:38.325Z,101633.75
2022-09-18T02:41:19.552Z,101635.25
2022-09-18T02:43:59.462Z,101652.28
2022-09-18T02:46:51.940Z,101625.06
2022-09-18T02:49:35.981Z,101618.28
2022-09-18T02:52:05.239Z,101627.09
2022-09-18T02:55:07.706Z,101619.31
2022-09-18T02:57:40.381Z,101624.06
2022-09-18T03:00:10.476Z,101620.19
2022-09-18T03:02:37.852Z,101620.19
2022-09-18T03:05:04.734Z,101618.63
2022-09-18T03:07:31.259Z,101628.78
2022-09-18T03:09:57.765Z,101626.06
2022-09-18T03:12:24.107Z,101617.94
2022-09-18T03:14:50.604Z,101621.09
2022-09-18T03:17:17.315Z,101612.19
2022-09-18T03:19:44.801Z,101614.09
2022-09-18T03:22:11.751Z,101614.56
2022-09-18T03:24:38.335Z,101625.50
2022-09-18T03:27:05.575Z,101640.00
2022-09-18T03:29:32.113Z,101641.22
2022-09-18T03:31:59.138Z,101638.97
2022-09-18T03:34:25.633Z,101635.25
2022-09-18T03:36:52.146Z,101626.06
2022-09-18T03:39:18.874Z,101618.63
2022-09-18T03:41:45.395Z,101615.44
2022-09-18T03:44:12.223Z,101608.34
2022-09-18T03:46:38.839Z,101609.69
2022-09-18T03:49:05.495Z,101605.63
2022-09-18T03:51:32.003Z,101609.34
2022-09-18T03:53:59.407Z,101598.72
2022-09-18T03:56:25.987Z,101600.88
2022-09-18T03:58:53.596Z,101598.63
2022-09-18T04:01:19.998Z,101591.94
2022-09-18T04:03:46.495Z,101602.78
2022-09-18T04:06:12.836Z,101593.19
2022-09-18T04:08:39.342Z,101590.81
2022-09-18T04:11:05.946Z,101598.63
2022-09-18T04:13:33.055Z,101600.53
2022-09-18T04:16:06.155Z,101607.06
2022-09-18T04:18:32.661Z,101605.97
2022-09-18T04:20:59.217Z,101608.31
2022-09-18T04:23:25.769Z,101611.00
2022-09-18T04:25:55.603Z,101615.19
2022-09-18T04:28:21.969Z,101610.78
2022-09-18T04:30:48.620Z,101611.59
2022-09-18T04:33:16.079Z,101613.94
2022-09-18T04:35:42.769Z,101610.00
2022-09-18T04:38:09.652Z,101616.53
2022-09-18T04:40:36.307Z,101613.38
2022-09-18T04:43:02.831Z,101607.50
2022-09-18T04:45:29.169Z,101607.50
2022-09-18T04:47:55.532Z,101605.91
2022-09-18T04:50:22.003Z,101603.53
2022-09-18T04:52:48.415Z,101602.41
2022-09-18T04:55:15.472Z,101598.59
2022-09-18T04:57:41.880Z,101604.13
2022-09-18T05:00:09.635Z,101605.25
2022-09-18T05:02:36.213Z,101607.50
2022-09-18T05:05:02.740Z,101590.00
2022-09-18T05:07:31.160Z,101595.28
2022-09-18T05:09:57.796Z,101602.63
2022-09-18T05:12:24.240Z,101594.19
2022-09-18T05:14:50.617Z,101592.56
2022-09-18T05:17:17.139Z,101587.84
2022-09-18T05:19:45.757Z,101596.44
2022-09-18T05:22:12.300Z,101592.94
2022-09-18T05:24:38.814Z,101586.38
2022-09-18T05:27:05.631Z,101589.09
2022-09-18T05:29:32.181Z,101597.66
2022-09-18T05:31:58.687Z,101597.66
2022-09-18T05:34:25.039Z,101602.09
2022-09-18T05:36:51.616Z,101610.34
2022-09-18T05:39:18.062Z,101589.91
2022-09-18T05:41:44.643Z,101596.13
2022-09-18T05:44:11.002Z,101590.47
2022-09-18T05:46:37.431Z,101596.69
2022-09-18T05:49:06.288Z,101607.53
2022-09-18T05:51:32.800Z,101612.28
2022-09-18T05:53:59.347Z,101611.81
2022-09-18T05:56:27.377Z,101608.66
2022-09-18T05:58:54.290Z,101604.03
2022-09-18T06:01:20.868Z,101591.25
2022-09-18T06:03:50.114Z,101599.50
2022-09-18T06:06:18.932Z,101580.09
2022-09-18T06:08:45.451Z,101574.34
2022-09-18T06:11:11.801Z,101576.03
2022-09-18T06:13:38.228Z,101571.97
2022-09-18T06:16:04.742Z,101579.53
2022-09-18T06:18:31.275Z,101581.25
2022-09-18T06:20:59.083Z,101586.44
2022-09-18T06:23:27.537Z,101569.94
2022-09-18T06:25:58.868Z,101574.66
2022-09-18T06:28:26.000Z,101579.88
2022-09-18T06:30:53.951Z,101578.84
2022-09-18T06:33:20.528Z,101571.94
2022-09-18T06:35:49.245Z,101575.03
2022-09-18T06:38:16.360Z,101579.84
2022-09-18T06:40:52.945Z,101581.66
2022-09-18T06:43:27.021Z,101585.97
2022-09-18T06:45:55.286Z,101593.31
2022-09-18T06:48:22.522Z,101591.72
2022-09-18T06:50:53.932Z,101609.31
2022-09-18T06:53:21.236Z,101589.69
2022-09-18T06:55:48.908Z,101594.44
2022-09-18T06:58:19.565Z,101591.81
2022-09-18T07:00:46.499Z,101588.69
2022-09-18T07:03:13.324Z,101588.34
2022-09-18T07:05:42.268Z,101591.50
2022-09-18T07:08:10.062Z,101586.31
2022-09-18T07:10:36.833Z,101594.34
2022-09-18T07:13:03.628Z,101602.25
2022-09-18T07:15:30.823Z,101595.09
2022-09-18T07:18:02.835Z,101589.91
2022-09-18T07:20:32.516Z,101587.38
2022-09-18T07:23:01.048Z,101591.41
2022-09-18T07:25:29.455Z,101586.19
2022-09-18T07:27:56.074Z,101595.59
2022-09-18T07:30:22.669Z,101591.47
2022-09-18T07:32:49.106Z,101590.44
2022-09-18T07:35:15.748Z,101588.88
2022-09-18T07:37:42.109Z,101596.47
2022-09-18T07:40:09.821Z,101608.13
2022-09-18T07:42:36.400Z,101609.25
2022-09-18T07:45:03.642Z,101609.16
2022-09-18T07:47:30.213Z,101607.22
2022-09-18T07:49:56.812Z,101596.72
2022-09-18T07:52:23.401Z,101591.63
2022-09-18T07:54:49.775Z,101601.13
2022-09-18T07:57:16.355Z,101595.34
2022-09-18T07:59:42.694Z,101585.25
2022-09-18T08:02:11.570Z,101590.88
2022-09-18T08:04:38.294Z,101593.34
2022-09-18T08:07:04.719Z,101593.78
2022-09-18T08:09:31.291Z,101590.81
2022-09-18T08:11:58.218Z,101584.38
2022-09-18T08:14:28.787Z,101589.09
2022-09-18T08:16:56.015Z,101598.22
2022-09-18T08:19:22.435Z,101584.66
2022-09-18T08:21:48.796Z,101588.94
2022-09-18T08:24:17.469Z,101585.44
2022-09-18T08:26:44.271Z,101599.91
2022-09-18T08:29:10.685Z,101597.28
2022-09-18T08:31:37.103Z,101589.56
2022-09-18T08:34:06.278Z,101576.72
2022-09-18T08:36:32.795Z,101581.31
2022-09-18T08:38:59.925Z,101588.19
2022-09-18T08:41:41.706Z,101591.88
2022-09-18T08:44:47.111Z,101591.00
2022-09-18T08:47:22.150Z,101580.66
2022-09-18T08:49:53.909Z,101584.00
2022-09-18T08:52:27.108Z,101584.97
2022-09-18T08:55:05.173Z,101580.06
2022-09-18T08:57:43.089Z,101574.19
2022-09-18T09:00:20.201Z,101575.00
2022-09-18T09:02:53.804Z,101577.50
2022-09-18T09:05:24.492Z,101581.38
2022-09-18T09:08:12.081Z,101603.47
2022-09-18T09:10:55.889Z,101595.91
2022-09-18T09:13:59.906Z,101591.25
2022-09-18T09:16:44.077Z,101599.97
2022-09-18T09:19:26.383Z,101587.25
2022-09-18T09:22:24.842Z,101588.94
2022-09-18T09:25:19.468Z,101582.88
2022-09-18T09:27:51.249Z,101595.56
2022-09-18T09:30:20.296Z,101592.94
2022-09-18T09:33:04.191Z,101593.97
2022-09-18T09:35:37.604Z,101589.13
2022-09-18T09:38:29.061Z,101583.25
2022-09-18T09:40:59.717Z,101589.66
2022-09-18T09:43:34.700Z,101586.94
2022-09-18T09:46:12.231Z,101578.09
2022-09-18T09:48:51.686Z,101579.63
2022-09-18T09:51:56.757Z,101576.41
2022-09-18T09:54:23.448Z,101576.94
2022-09-18T09:57:01.447Z,101563.09
2022-09-18T09:59:45.510Z,101573.25
2022-09-18T10:02:34.219Z,101571.19
2022-09-18T10:05:16.388Z,101580.72
2022-09-18T10:07:49.647Z,101587.03
2022-09-18T10:10:30.791Z,101596.06
2022-09-18T10:13:21.135Z,101588.66
2022-09-18T10:15:51.582Z,101587.47
2022-09-18T10:18:22.796Z,101593.63
2022-09-18T10:20:53.382Z,101584.97
2022-09-18T10:23:40.937Z,101596.72
2022-09-18T10:26:13.239Z,101588.75
2022-09-18T10:28:39.583Z,101583.13
2022-09-18T10:31:12.350Z,101583.25
2022-09-18T10:33:44.357Z,101584.19
2022-09-18T10:36:25.930Z,101590.16
2022-09-18T10:38:52.366Z,101587.06
2022-09-18T10:41:24.964Z,101592.09
2022-09-18T10:43:58.103Z,101588.09
2022-09-18T10:46:26.676Z,101595.66
2022-09-18T10:48:53.800Z,101592.69
2022-09-18T10:51:21.752Z,101587.75
2022-09-18T10:54:24.209Z,101590.25
2022-09-18T10:56:51.243Z,101601.38
2022-09-18T10:59:43.778Z,101588.94
2022-09-18T11:02:20.023Z,101587.03
2022-09-18T11:04:48.791Z,101587.25
2022-09-18T11:07:15.288Z,101584.97
2022-09-18T11:09:42.055Z,101588.19
2022-09-18T11:12:29.285Z,101591.63
2022-09-18T11:15:06.204Z,101596.84
2022-09-18T11:17:36.982Z,101597.72
2022-09-18T11:20:06.404Z,101593.13
2022-09-18T11:22:40.150Z,101593.03
2022-09-18T11:25:09.052Z,101579.00
2022-09-18T11:27:59.771Z,101576.78
2022-09-18T11:30:28.838Z,101583.31
2022-09-18T11:33:00.703Z,101582.47
2022-09-18T11:35:29.973Z,101585.13
2022-09-18T11:38:00.477Z,101588.03
2022-09-18T11:40:50.251Z,101580.66
2022-09-18T11:43:23.503Z,101586.03
2022-09-18T11:45:53.011Z,101576.63
2022-09-18T11:48:31.987Z,101570.69
2022-09-18T11:51:10.144Z,101582.56
2022-09-18T11:53:43.101Z,101573.81
2022-09-18T11:56:24.576Z,101569.94
2022-09-18T11:58:58.169Z,101571.53
2022-09-18T12:01:27.982Z,101574.31
2022-09-18T12:04:31.344Z,101567.81
2022-09-18T12:07:11.400Z,101574.47
2022-09-18T12:09:57.211Z,101571.03
2022-09-18T12:12:31.615Z,101564.41
2022-09-18T12:15:08.624Z,101570.19
2022-09-18T12:17:46.399Z,101569.38
2022-09-18T12:20:34.633Z,101580.63
2022-09-18T12:23:01.669Z,101576.69
2022-09-18T12:26:03.370Z,101584.88
2022-09-18T12:28:37.789Z,101580.06
2022-09-18T12:31:27.529Z,101580.06
2022-09-18T12:34:09.949Z,101582.34
2022-09-18T12:36:52.228Z,101577.09
2022-09-18T12:39:46.675Z,101588.25
2022-09-18T12:42:34.901Z,101593.63
2022-09-18T12:45:19.843Z,101588.88
2022-09-18T12:48:01.578Z,101582.22
2022-09-18T12:50:45.484Z,101595.75
2022-09-18T12:53:33.120Z,101595.22
2022-09-18T12:56:13.984Z,101597.16
2022-09-18T12:58:58.653Z,101595.47
2022-09-18T13:01:31.635Z,101591.47
2022-09-18T13:04:16.569Z,101597.69
2022-09-18T13:06:49.931Z,101596.03
2022-09-18T13:09:27.006Z,101583.94
2022-09-18T13:12:11.756Z,101594.81
2022-09-18T13:14:45.620Z,101587.34
2022-09-18T13:17:20.919Z,101592.09
2022-09-18T13:20:02.570Z,101585.66
2022-09-18T13:22:36.759Z,101579.09
2022-09-18T13:25:04.990Z,101572.06
2022-09-18T13:27:32.659Z,101575.94
2022-09-18T13:30:12.615Z,101582.16
2022-09-18T13:32:41.223Z,101582.59
2022-09-18T13:35:13.692Z,101587.09
2022-09-18T13:37:42.107Z,101590.66
2022-09-18T13:40:36.966Z,101585.75
2022-09-18T13:43:28.046Z,101598.63
2022-09-18T13:45:56.495Z,101597.84
2022-09-18T13:48:27.320Z,101596.22
2022-09-18T13:50:57.692Z,101598.38
2022-09-18T13:53:35.931Z,101600.94
2022-09-18T13:56:03.971Z,101598.81
2022-09-18T13:58:36.825Z,101598.81
2022-09-18T14:01:08.686Z,101593.09
2022-09-18T14:03:39.174Z,101594.06
2022-09-18T14:06:36.659Z,101585.38
2022-09-18T14:09:47.916Z,101587.66
2022-09-18T14:12:16.388Z,101589.13
2022-09-18T14:14:44.764Z,101585.63
2022-09-18T14:17:15.845Z,101584.47
2022-09-18T14:19:45.754Z,101581.41
2022-09-18T14:22:29.792Z,101578.78
2022-09-18T14:24:59.969Z,101575.03
2022-09-18T14:27:56.130Z,101578.63
2022-09-18T14:30:34.379Z,101589.16
2022-09-18T14:33:03.643Z,101589.16
2022-09-18T14:35:59.459Z,101585.91
2022-09-18T14:38:32.423Z,101571.78
2022-09-18T14:41:02.732Z,101574.84
2022-09-18T14:43:29.258Z,101582.56
2022-09-18T14:45:56.119Z,101582.03
2022-09-18T14:48:31.005Z,101584.03
2022-09-18T14:51:03.355Z,101584.38
2022-09-18T14:53:30.460Z,101590.97
2022-09-18T14:56:07.458Z,101586.56
2022-09-18T14:58:37.612Z,101584.47
2022-09-18T15:01:08.098Z,101583.69
2022-09-18T15:03:39.496Z,101587.84
2022-09-18T15:06:17.184Z,101586.31
2022-09-18T15:08:46.056Z,101582.34
2022-09-18T15:11:14.703Z,101587.69
2022-09-18T15:13:42.239Z,101581.56
2022-09-18T15:16:18.888Z,101599.44
2022-09-18T15:18:45.447Z,101591.72
2022-09-18T15:21:33.740Z,101592.16
2022-09-18T15:24:05.071Z,101590.56
2022-09-18T15:26:40.966Z,101588.66
2022-09-18T15:29:18.816Z,101590.13
2022-09-18T15:31:45.852Z,101579.19
2022-09-18T15:34:20.582Z,101583.84
2022-09-18T15:36:55.964Z,101595.38
2022-09-18T15:39:39.928Z,101600.38
2022-09-18T15:42:23.184Z,101597.56
2022-09-18T15:44:49.541Z,101598.34
2022-09-18T15:47:33.027Z,101609.56
2022-09-18T15:50:01.712Z,101605.63
2022-09-18T15:52:47.434Z,101616.13
2022-09-18T15:55:22.084Z,101616.13
2022-09-18T15:57:50.286Z,101617.34
2022-09-18T16:00:18.547Z,101620.50
2022-09-18T16:02:52.484Z,101618.22
2022-09-18T16:05:19.551Z,101628.31
2022-09-18T16:07:53.243Z,101630.25
2022-09-18T16:10:41.570Z,101622.88
2022-09-18T16:13:10.944Z,101618.84
2022-09-18T16:15:37.876Z,101612.16
2022-09-18T16:18:23.894Z,101611.53
2022-09-18T16:20:51.106Z,101610.06
2022-09-18T16:23:24.062Z,101590.19
2022-09-18T16:26:07.546Z,101573.09
2022-09-18T16:28:39.884Z,101581.16
2022-09-18T16:31:06.631Z,101578.34
2022-09-18T16:33:34.130Z,101579.38
2022-09-18T16:36:00.577Z,101587.84
2022-09-18T16:38:27.195Z,101592.13
2022-09-18T16:40:53.791Z,101591.47
2022-09-18T16:43:20.356Z,101591.81
2022-09-18T16:45:47.747Z,101600.03
2022-09-18T16:48:15.216Z,101601.88
2022-09-18T16:50:42.050Z,101601.00
2022-09-18T16:53:10.488Z,101599.06
2022-09-18T16:55:40.843Z,101595.91
2022-09-18T16:58:09.248Z,101601.66
2022-09-18T17:00:37.685Z,101600.75
2022-09-18T17:03:07.982Z,101607.66
2022-09-18T17:05:34.944Z,101615.25
2022-09-18T17:08:04.070Z,101613.53
2022-09-18T17:10:31.959Z,101609.22
2022-09-18T17:12:59.536Z,101604.25
2022-09-18T17:15:30.303Z,101613.31
2022-09-18T17:18:01.576Z,101612.06
2022-09-18T17:20:29.139Z,101607.09
2022-09-18T17:22:59.432Z,101615.00
2022-09-18T17:25:30.656Z,101613.19
2022-09-18T17:28:01.238Z,101612.63
2022-09-18T17:30:32.369Z,101619.41
2022-09-18T17:32:59.168Z,101612.28
2022-09-18T17:35:26.497Z,101616.81
2022-09-18T17:37:53.036Z,101619.34
2022-09-18T17:40:19.531Z,101620.84
2022-09-18T17:42:46.129Z,101626.13
2022-09-18T17:45:12.640Z,101621.59
2022-09-18T17:47:41.319Z,101629.47
2022-09-18T17:50:08.395Z,101640.84
2022-09-18T17:52:37.812Z,101638.34
2022-09-18T17:55:05.191Z,101641.25
2022-09-18T17:57:31.942Z,101636.84
2022-09-18T17:59:58.311Z,101636.91
2022-09-18T18:02:25.282Z,101645.13
2022-09-18T18:04:51.708Z,101646.91
2022-09-18T18:07:18.279Z,101656.50
2022-09-18T18:09:44.666Z,101654.44
2022-09-18T18:12:11.045Z,101664.47
2022-09-18T18:14:37.576Z,101649.81
2022-09-18T18:17:04.191Z,101670.22
2022-09-18T18:19:30.669Z,101668.16
2022-09-18T18:21:58.349Z,101671.59
2022-09-18T18:24:24.928Z,101678.16
2022-09-18T18:26:53.544Z,101679.72
2022-09-18T18:29:22.479Z,101676.63
2022-09-18T18:31:50.426Z,101670.63
2022-09-18T18:34:21.187Z,101674.09
2022-09-18T18:36:50.371Z,101673.81
2022-09-18T18:39:20.007Z,101688.78
2022-09-18T18:41:46.982Z,101692.00
2022-09-18T18:44:13.616Z,101697.25
2022-09-18T18:46:40.602Z,101699.81
2022-09-18T18:49:13.023Z,101699.81
2022-09-18T18:51:43.817Z,101708.59
2022-09-18T18:54:11.205Z,101712.28
2022-09-18T18:56:38.798Z,101719.63
2022-09-18T18:59:10.248Z,101719.13
2022-09-18T19:01:42.625Z,101727.75
2022-09-18T19:04:12.978Z,101722.47
2022-09-18T19:06:42.261Z,101721.34
2022-09-18T19:09:20.898Z,101730.59
2022-09-18T19:11:49.735Z,101732.94
2022-09-18T19:14:21.828Z,101731.03
2022-09-18T19:16:49.419Z,101739.81
2022-09-18T19:19:18.581Z,101740.13
2022-09-18T19:21:45.097Z,101740.78
2022-09-18T19:24:12.588Z,101747.63
2022-09-18T19:26:41.182Z,101747.03
2022-09-18T19:29:12.229Z,101746.06
2022-09-18T19:31:40.731Z,101751.34
2022-09-18T19:34:07.355Z,101741.47
2022-09-18T19:36:34.477Z,101744.53
2022-09-18T19:39:04.547Z,101752.47
2022-09-18T19:41:41.088Z,101752.66
2022-09-18T19:44:15.176Z,101764.13
2022-09-18T19:46:41.913Z,101764.91
2022-09-18T19:49:17.127Z,101762.66
2022-09-18T19:51:43.645Z,101759.97
2022-09-18T19:54:10.522Z,101765.84
2022-09-18T19:56:43.285Z,101772.69
2022-09-18T19:59:10.392Z,101770.31
2022-09-18T20:01:36.822Z,101773.81
2022-09-18T20:04:03.492Z,101777.94
2022-09-18T20:06:32.129Z,101774.13
2022-09-18T20:08:59.314Z,101777.50
2022-09-18T20:11:25.875Z,101773.97
2022-09-18T20:13:53.316Z,101784.16
2022-09-18T20:16:20.051Z,101780.69
2022-09-18T20:18:48.028Z,101781.47
2022-09-18T20:21:17.652Z,101786.25
2022-09-18T20:23:44.235Z,101784.19
2022-09-18T20:26:13.285Z,101782.94
2022-09-18T20:28:40.638Z,101784.66
2022-09-18T20:31:12.276Z,101801.19
2022-09-18T20:33:39.248Z,101802.31
2022-09-18T20:36:07.535Z,101800.25
2022-09-18T20:38:36.807Z,101809.97
2022-09-18T20:41:07.068Z,101809.28
2022-09-18T20:43:36.287Z,101808.19
2022-09-18T20:46:06.618Z,101810.25
2022-09-18T20:48:41.768Z,101809.44
2022-09-18T20:51:10.701Z,101808.34
2022-09-18T20:53:39.147Z,101811.38
2022-09-18T20:56:06.474Z,101824.72
2022-09-18T20:58:34.252Z,101818.53
2022-09-18T21:01:15.497Z,101817.88
2022-09-18T21:03:43.740Z,101815.19
2022-09-18T21:06:22.340Z,101819.63
2022-09-18T21:08:53.610Z,101814.09
2022-09-18T21:11:27.536Z,101822.03
2022-09-18T21:14:00.829Z,101827.44
2022-09-18T21:16:29.591Z,101826.31
2022-09-18T21:18:59.181Z,101824.41
2022-09-18T21:21:27.182Z,101831.53
2022-09-18T21:24:01.901Z,101822.34
2022-09-18T21:26:37.539Z,101831.38
2022-09-18T21:29:20.828Z,101835.38
2022-09-18T21:31:49.556Z,101830.44
2022-09-18T21:34:24.265Z,101831.72
2022-09-18T21:36:53.043Z,101832.19
2022-09-18T21:39:19.812Z,101834.44
2022-09-18T21:41:47.682Z,101830.91
2022-09-18T21:44:16.302Z,101829.03
2022-09-18T21:46:45.703Z,101826.97
2022-09-18T21:49:14.860Z,101833.78
2022-09-18T21:51:41.420Z,101833.63
2022-09-18T21:54:14.700Z,101836.31
2022-09-18T21:56:42.612Z,101843.31
2022-09-18T21:59:10.344Z,101846.34
2022-09-18T22:01:38.283Z,101853.34
2022-09-18T22:04:06.211Z,101853.50
2022-09-18T22:06:36.088Z,101861.75
2022-09-18T22:09:09.351Z,101859.22
2022-09-18T22:11:37.099Z,101848.25
2022-09-18T22:14:06.651Z,101853.19
2022-09-18T22:16:33.721Z,101851.59
2022-09-18T22:19:00.213Z,101856.03
2022-09-18T22:21:32.318Z,101861.28
2022-09-18T22:24:08.659Z,101858.72
2022-09-18T22:26:38.038Z,101866.03
2022-09-18T22:29:08.111Z,101861.44
2022-09-18T22:31:37.051Z,101873.34
2022-09-18T22:34:03.930Z,101876.38
2022-09-18T22:36:30.773Z,101875.91
2022-09-18T22:38:57.168Z,101879.22
2022-09-18T22:41:23.915Z,101879.53
2022-09-18T22:43:55.599Z,101881.94
2022-09-18T22:46:24.482Z,101879.56
2022-09-18T22:48:52.089Z,101880.22
2022-09-18T22:51:21.314Z,101880.03
2022-09-18T22:53:54.381Z,101881.94
2022-09-18T22:56:21.330Z,101877.50
2022-09-18T22:58:47.716Z,101883.53
2022-09-18T23:01:49.207Z,101886.56
2022-09-18T23:04:18.770Z,101884.31
2022-09-18T23:06:47.395Z,101882.41
2022-09-18T23:09:15.263Z,101887.03
2022-09-18T23:11:45.767Z,101886.72
2022-09-18T23:14:15.541Z,101894.50
2022-09-18T23:16:41.897Z,101904.19
2022-09-18T23:19:14.539Z,101898.78
2022-09-18T23:21:41.048Z,101898.78
2022-09-18T23:24:09.268Z,101907.38
2022-09-18T23:26:41.787Z,101917.84
2022-09-18T23:29:11.791Z,101911.50
2022-09-18T23:31:40.867Z,101910.88
2022-09-18T23:34:11.716Z,101908.66
2022-09-18T23:36:41.070Z,101899.75
2022-09-18T23:39:19.128Z,101898.47
2022-09-18T23:41:46.410Z,101902.00
2022-09-18T23:44:15.776Z,101908.66
2022-09-18T23:46:43.525Z,101902.94
2022-09-18T23:49:12.279Z,101900.38
2022-09-18T23:51:41.641Z,101901.31
2022-09-18T23:54:30.929Z,101898.00
2022-09-18T23:56:57.552Z,101894.97
2022-09-18T23:59:25.454Z,101898.66
